createdAt,value
2018-05-21T00:00:23.272Z,19.00
2018-05-21T00:00:55.819Z,19.00
2018-05-21T00:01:28.385Z,18.90
2018-05-21T00:02:00.899Z,19.00
2018-05-21T00:02:33.436Z,19.00
2018-05-21T00:03:05.992Z,18.90
2018-05-21T00:03:38.553Z,18.90
2018-05-21T00:04:11.108Z,19.00
2018-05-21T00:04:43.629Z,18.90
2018-05-21T00:05:16.175Z,19.00
2018-05-21T00:05:48.688Z,18.90
2018-05-21T00:06:21.233Z,18.90
2018-05-21T00:06:53.765Z,19.00
2018-05-21T00:07:26.336Z,18.90
2018-05-21T00:07:58.856Z,18.90
2018-05-21T00:08:31.391Z,18.90
2018-05-21T00:09:03.944Z,18.90
2018-05-21T00:09:36.484Z,18.90
2018-05-21T00:10:09.042Z,18.90
2018-05-21T00:10:41.590Z,18.90
2018-05-21T00:11:14.122Z,18.90
2018-05-21T00:11:46.635Z,18.90
2018-05-21T00:12:19.186Z,18.90
2018-05-21T00:12:51.764Z,18.90
2018-05-21T00:13:24.764Z,18.90
2018-05-21T00:13:57.625Z,18.80
2018-05-21T00:14:30.150Z,18.90
2018-05-21T00:15:02.668Z,18.80
2018-05-21T00:15:35.981Z,18.90
2018-05-21T00:16:08.516Z,18.80
2018-05-21T00:16:41.124Z,18.80
2018-05-21T00:17:13.629Z,18.80
2018-05-21T00:17:46.180Z,18.80
2018-05-21T00:18:18.720Z,18.80
2018-05-21T00:18:51.282Z,18.80
2018-05-21T00:19:23.820Z,18.80
2018-05-21T00:19:56.384Z,18.80
2018-05-21T00:20:28.917Z,18.80
2018-05-21T00:21:01.456Z,18.80
2018-05-21T00:21:33.999Z,18.80
2018-05-21T00:22:06.560Z,18.80
2018-05-21T00:22:39.080Z,18.80
2018-05-21T00:23:11.634Z,18.80
2018-05-21T00:23:44.155Z,18.80
2018-05-21T00:24:16.676Z,18.80
2018-05-21T00:24:49.225Z,18.80
2018-05-21T00:25:21.771Z,18.80
2018-05-21T00:25:54.317Z,18.80
2018-05-21T00:26:26.881Z,18.80
2018-05-21T00:26:59.430Z,18.80
2018-05-21T00:27:32.050Z,18.80
2018-05-21T00:28:04.608Z,18.70
2018-05-21T00:28:37.127Z,18.80
2018-05-21T00:29:09.681Z,18.70
2018-05-21T00:29:42.215Z,18.70
2018-05-21T00:30:14.770Z,18.70
2018-05-21T00:30:47.336Z,18.70
2018-05-21T00:31:19.885Z,18.70
2018-05-21T00:31:52.447Z,18.70
2018-05-21T00:32:25.003Z,18.70
2018-05-21T00:32:57.547Z,18.70
2018-05-21T00:33:30.071Z,18.70
2018-05-21T00:34:02.601Z,18.70
2018-05-21T00:34:35.137Z,18.70
2018-05-21T00:35:07.661Z,18.70
2018-05-21T00:35:40.211Z,18.70
2018-05-21T00:36:12.740Z,18.70
2018-05-21T00:36:45.289Z,18.70
2018-05-21T00:37:17.845Z,18.70
2018-05-21T00:37:50.420Z,18.70
2018-05-21T00:38:22.967Z,18.70
2018-05-21T00:38:55.507Z,18.70
2018-05-21T00:39:28.037Z,18.70
2018-05-21T00:40:00.676Z,18.70
2018-05-21T00:40:33.199Z,18.70
2018-05-21T00:41:05.763Z,18.70
2018-05-21T00:41:38.315Z,18.70
2018-05-21T00:42:10.864Z,18.70
2018-05-21T00:42:43.380Z,18.70
2018-05-21T00:43:15.956Z,18.70
2018-05-21T00:43:48.542Z,18.80
2018-05-21T00:44:21.113Z,18.70
2018-05-21T00:44:53.647Z,18.70
2018-05-21T00:45:26.191Z,18.80
2018-05-21T00:45:58.759Z,18.80
2018-05-21T00:46:31.310Z,18.70
2018-05-21T00:47:03.859Z,18.80
2018-05-21T00:47:36.409Z,18.80
2018-05-21T00:48:09.727Z,18.70
2018-05-21T00:48:42.379Z,18.70
2018-05-21T00:49:14.952Z,18.70
2018-05-21T00:49:47.502Z,18.80
2018-05-21T00:50:20.150Z,18.70
2018-05-21T00:50:52.629Z,18.70
2018-05-21T00:51:25.162Z,18.70
2018-05-21T00:51:57.707Z,18.70
2018-05-21T00:52:30.267Z,18.70
2018-05-21T00:53:02.796Z,18.70
2018-05-21T00:53:35.329Z,18.70
2018-05-21T00:54:07.868Z,18.70
2018-05-21T00:54:52.145Z,18.70
2018-05-21T00:55:36.447Z,18.70
2018-05-21T00:56:09.012Z,18.70
2018-05-21T00:56:41.532Z,18.70
2018-05-21T00:57:14.069Z,18.70
2018-05-21T00:57:46.607Z,18.70
2018-05-21T00:58:19.317Z,18.70
2018-05-21T00:58:51.872Z,18.70
2018-05-21T00:59:24.388Z,18.70
2018-05-21T00:59:56.952Z,18.70
2018-05-21T01:00:30.163Z,18.70
2018-05-21T01:01:02.996Z,18.70
2018-05-21T01:01:35.544Z,18.70
2018-05-21T01:02:08.104Z,18.60
2018-05-21T01:02:40.636Z,18.70
2018-05-21T01:03:13.173Z,18.60
2018-05-21T01:03:45.737Z,18.70
2018-05-21T01:04:18.288Z,18.60
2018-05-21T01:04:50.832Z,18.60
2018-05-21T01:05:23.378Z,18.60
2018-05-21T01:05:55.914Z,18.60
2018-05-21T01:06:28.458Z,18.70
2018-05-21T01:07:01.746Z,18.60
2018-05-21T01:07:34.293Z,18.60
2018-05-21T01:08:06.846Z,18.60
2018-05-21T01:08:39.374Z,18.60
2018-05-21T01:09:11.916Z,18.60
2018-05-21T01:09:44.465Z,18.60
2018-05-21T01:10:17.055Z,18.60
2018-05-21T01:10:49.601Z,18.60
2018-05-21T01:11:22.184Z,18.60
2018-05-21T01:11:54.749Z,18.60
2018-05-21T01:12:27.263Z,18.60
2018-05-21T01:13:00.836Z,18.60
2018-05-21T01:13:34.128Z,18.60
2018-05-21T01:14:06.657Z,18.60
2018-05-21T01:14:39.193Z,18.60
2018-05-21T01:15:11.733Z,18.60
2018-05-21T01:15:44.485Z,18.60
2018-05-21T01:16:17.777Z,18.60
2018-05-21T01:16:50.336Z,18.60
2018-05-21T01:17:23.234Z,18.60
2018-05-21T01:17:55.794Z,18.60
2018-05-21T01:18:28.369Z,18.60
2018-05-21T01:19:00.917Z,18.60
2018-05-21T01:19:33.471Z,18.50
2018-05-21T01:20:06.038Z,18.60
2018-05-21T01:20:38.579Z,18.60
2018-05-21T01:21:11.132Z,18.50
2018-05-21T01:21:43.679Z,18.50
2018-05-21T01:22:16.205Z,18.50
2018-05-21T01:22:48.785Z,18.50
2018-05-21T01:23:21.343Z,18.50
2018-05-21T01:23:53.892Z,18.50
2018-05-21T01:24:26.415Z,18.50
2018-05-21T01:24:58.983Z,18.50
2018-05-21T01:25:32.288Z,18.50
2018-05-21T01:26:04.821Z,18.50
2018-05-21T01:26:37.368Z,18.50
2018-05-21T01:27:10.715Z,18.50
2018-05-21T01:27:43.276Z,18.40
2018-05-21T01:28:15.874Z,18.50
2018-05-21T01:28:48.411Z,18.50
2018-05-21T01:29:20.927Z,18.50
2018-05-21T01:29:53.458Z,18.50
2018-05-21T01:30:26.012Z,18.40
2018-05-21T01:30:58.556Z,18.40
2018-05-21T01:31:31.076Z,18.50
2018-05-21T01:32:03.610Z,18.40
2018-05-21T01:32:36.161Z,18.40
2018-05-21T01:33:08.704Z,18.40
2018-05-21T01:33:41.255Z,18.40
2018-05-21T01:34:13.791Z,18.40
2018-05-21T01:34:47.108Z,18.40
2018-05-21T01:35:19.635Z,18.40
2018-05-21T01:35:52.205Z,18.40
2018-05-21T01:36:24.760Z,18.40
2018-05-21T01:36:57.299Z,18.40
2018-05-21T01:37:30.605Z,18.30
2018-05-21T01:38:03.139Z,18.30
2018-05-21T01:38:35.650Z,18.30
2018-05-21T01:39:08.192Z,18.30
2018-05-21T01:39:40.766Z,18.30
2018-05-21T01:40:13.309Z,18.20
2018-05-21T01:40:45.837Z,18.30
2018-05-21T01:41:18.394Z,18.30
2018-05-21T01:41:50.919Z,18.30
2018-05-21T01:42:24.239Z,18.30
2018-05-21T01:42:56.812Z,18.20
2018-05-21T01:43:29.356Z,18.30
2018-05-21T01:44:01.900Z,18.30
2018-05-21T01:44:34.445Z,18.30
2018-05-21T01:45:07.020Z,18.20
2018-05-21T01:45:39.544Z,18.20
2018-05-21T01:46:12.096Z,18.20
2018-05-21T01:46:44.639Z,18.20
2018-05-21T01:47:17.208Z,18.20
2018-05-21T01:47:49.849Z,18.20
2018-05-21T01:48:22.393Z,18.20
2018-05-21T01:48:55.053Z,18.20
2018-05-21T01:49:28.273Z,18.20
2018-05-21T01:50:00.876Z,18.10
2018-05-21T01:50:33.413Z,18.10
2018-05-21T01:51:05.940Z,18.10
2018-05-21T01:51:38.466Z,18.10
2018-05-21T01:52:11.047Z,18.10
2018-05-21T01:52:43.592Z,18.10
2018-05-21T01:53:16.146Z,18.10
2018-05-21T01:53:48.696Z,18.10
2018-05-21T01:54:21.247Z,18.10
2018-05-21T01:54:53.805Z,18.10
2018-05-21T01:55:26.342Z,18.10
2018-05-21T01:55:58.855Z,18.10
2018-05-21T01:56:31.425Z,18.10
2018-05-21T01:57:03.958Z,18.10
2018-05-21T01:57:36.523Z,18.10
2018-05-21T01:58:09.065Z,18.10
2018-05-21T01:58:42.360Z,18.10
2018-05-21T01:59:14.881Z,18.10
2018-05-21T01:59:47.406Z,18.10
2018-05-21T02:00:19.957Z,18.20
2018-05-21T02:00:52.522Z,18.10
2018-05-21T02:01:25.089Z,18.10
2018-05-21T02:01:57.627Z,18.20
2018-05-21T02:02:30.171Z,18.10
2018-05-21T02:03:03.497Z,18.10
2018-05-21T02:03:36.057Z,18.10
2018-05-21T02:04:08.595Z,18.10
2018-05-21T02:04:41.147Z,18.10
2018-05-21T02:05:13.664Z,18.10
2018-05-21T02:05:46.188Z,18.10
2018-05-21T02:06:18.720Z,18.10
2018-05-21T02:06:51.238Z,18.10
2018-05-21T02:07:23.783Z,18.10
2018-05-21T02:07:56.315Z,18.00
2018-05-21T02:08:28.884Z,18.10
2018-05-21T02:09:01.403Z,18.00
2018-05-21T02:09:33.928Z,18.00
2018-05-21T02:10:06.467Z,18.00
2018-05-21T02:10:39.011Z,18.00
2018-05-21T02:11:11.557Z,18.00
2018-05-21T02:11:44.097Z,18.00
2018-05-21T02:12:16.669Z,18.00
2018-05-21T02:12:49.217Z,18.00
2018-05-21T02:13:21.778Z,18.00
2018-05-21T02:13:54.323Z,18.00
2018-05-21T02:14:27.621Z,18.00
2018-05-21T02:15:00.173Z,18.00
2018-05-21T02:15:32.684Z,18.00
2018-05-21T02:16:05.227Z,18.00
2018-05-21T02:16:37.747Z,18.00
2018-05-21T02:17:11.066Z,18.00
2018-05-21T02:17:43.579Z,17.90
2018-05-21T02:18:16.127Z,18.00
2018-05-21T02:18:48.644Z,18.00
2018-05-21T02:19:21.159Z,18.00
2018-05-21T02:19:53.701Z,18.00
2018-05-21T02:20:26.250Z,17.90
2018-05-21T02:20:58.764Z,18.00
2018-05-21T02:21:31.289Z,17.90
2018-05-21T02:22:03.815Z,18.00
2018-05-21T02:22:36.332Z,18.00
2018-05-21T02:23:08.861Z,17.90
2018-05-21T02:23:41.408Z,17.90
2018-05-21T02:24:13.953Z,17.90
2018-05-21T02:24:47.284Z,17.90
2018-05-21T02:25:19.857Z,17.90
2018-05-21T02:25:52.425Z,17.90
2018-05-21T02:26:24.980Z,17.90
2018-05-21T02:26:57.576Z,17.90
2018-05-21T02:27:30.064Z,17.90
2018-05-21T02:28:02.975Z,17.80
2018-05-21T02:28:35.488Z,17.90
2018-05-21T02:29:08.029Z,17.80
2018-05-21T02:29:40.551Z,17.80
2018-05-21T02:30:13.077Z,17.80
2018-05-21T02:30:46.409Z,17.80
2018-05-21T02:31:18.937Z,17.80
2018-05-21T02:31:51.471Z,17.80
2018-05-21T02:32:23.995Z,17.80
2018-05-21T02:32:56.528Z,17.80
2018-05-21T02:33:29.076Z,17.80
2018-05-21T02:34:03.315Z,17.80
2018-05-21T02:34:35.836Z,17.80
2018-05-21T02:35:08.404Z,17.80
2018-05-21T02:35:40.960Z,17.80
2018-05-21T02:36:13.504Z,17.80
2018-05-21T02:36:46.021Z,17.80
2018-05-21T02:37:18.562Z,17.80
2018-05-21T02:37:51.125Z,17.80
2018-05-21T02:38:23.688Z,17.80
2018-05-21T02:38:56.203Z,17.80
2018-05-21T02:39:28.747Z,17.80
2018-05-21T02:40:01.357Z,17.80
2018-05-21T02:40:34.665Z,17.80
2018-05-21T02:41:07.220Z,17.80
2018-05-21T02:41:39.778Z,17.80
2018-05-21T02:42:12.307Z,17.80
2018-05-21T02:42:44.833Z,17.80
2018-05-21T02:43:17.359Z,17.80
2018-05-21T02:43:50.660Z,17.70
2018-05-21T02:44:23.180Z,17.70
2018-05-21T02:44:55.703Z,17.70
2018-05-21T02:45:28.275Z,17.70
2018-05-21T02:46:00.794Z,17.70
2018-05-21T02:46:34.107Z,17.70
2018-05-21T02:47:06.688Z,17.70
2018-05-21T02:47:39.213Z,17.70
2018-05-21T02:48:11.739Z,17.70
2018-05-21T02:48:44.252Z,17.70
2018-05-21T02:49:16.796Z,17.70
2018-05-21T02:49:50.089Z,17.70
2018-05-21T02:50:22.637Z,17.60
2018-05-21T02:50:55.184Z,17.70
2018-05-21T02:51:28.011Z,17.60
2018-05-21T02:52:00.560Z,17.60
2018-05-21T02:52:33.085Z,17.60
2018-05-21T02:53:05.636Z,17.60
2018-05-21T02:53:38.192Z,17.60
2018-05-21T02:54:10.748Z,17.60
2018-05-21T02:54:43.266Z,17.60
2018-05-21T02:55:15.788Z,17.60
2018-05-21T02:55:48.324Z,17.60
2018-05-21T02:56:20.888Z,17.60
2018-05-21T02:56:53.452Z,17.60
2018-05-21T02:57:26.024Z,17.60
2018-05-21T02:57:58.600Z,17.60
2018-05-21T02:58:31.179Z,17.60
2018-05-21T02:59:03.731Z,17.60
2018-05-21T02:59:36.284Z,17.60
2018-05-21T03:00:08.799Z,17.60
2018-05-21T03:00:41.326Z,17.60
2018-05-21T03:01:13.877Z,17.60
2018-05-21T03:01:46.419Z,17.60
2018-05-21T03:02:18.936Z,17.60
2018-05-21T03:02:51.457Z,17.50
2018-05-21T03:03:24.000Z,17.50
2018-05-21T03:03:56.565Z,17.50
2018-05-21T03:04:29.098Z,17.50
2018-05-21T03:05:02.399Z,17.50
2018-05-21T03:05:34.909Z,17.50
2018-05-21T03:06:07.440Z,17.50
2018-05-21T03:06:39.993Z,17.50
2018-05-21T03:07:12.540Z,17.50
2018-05-21T03:07:45.072Z,17.50
2018-05-21T03:08:17.599Z,17.50
2018-05-21T03:08:50.172Z,17.50
2018-05-21T03:09:22.698Z,17.50
2018-05-21T03:09:55.212Z,17.50
2018-05-21T03:10:27.760Z,17.50
2018-05-21T03:11:00.310Z,17.50
2018-05-21T03:11:32.832Z,17.50
2018-05-21T03:12:05.377Z,17.50
2018-05-21T03:12:38.688Z,17.50
2018-05-21T03:13:11.232Z,17.50
2018-05-21T03:13:43.792Z,17.50
2018-05-21T03:14:16.317Z,17.50
2018-05-21T03:14:48.828Z,17.40
2018-05-21T03:15:21.389Z,17.40
2018-05-21T03:15:53.911Z,17.40
2018-05-21T03:16:26.455Z,17.40
2018-05-21T03:16:59.001Z,17.40
2018-05-21T03:17:31.552Z,17.50
2018-05-21T03:18:04.071Z,17.40
2018-05-21T03:18:36.620Z,17.40
2018-05-21T03:19:09.185Z,17.40
2018-05-21T03:19:41.701Z,17.50
2018-05-21T03:20:14.220Z,17.40
2018-05-21T03:20:46.767Z,17.40
2018-05-21T03:21:19.313Z,17.40
2018-05-21T03:21:51.871Z,17.40
2018-05-21T03:22:24.420Z,17.40
2018-05-21T03:22:56.954Z,17.40
2018-05-21T03:23:29.491Z,17.40
2018-05-21T03:24:02.928Z,17.40
2018-05-21T03:24:35.484Z,17.40
2018-05-21T03:25:08.807Z,17.40
2018-05-21T03:25:41.350Z,17.40
2018-05-21T03:26:13.901Z,17.40
2018-05-21T03:26:46.449Z,17.40
2018-05-21T03:27:18.992Z,17.40
2018-05-21T03:27:51.522Z,17.40
2018-05-21T03:28:24.052Z,17.40
2018-05-21T03:28:56.580Z,17.40
2018-05-21T03:29:29.112Z,17.40
2018-05-21T03:30:02.605Z,17.40
2018-05-21T03:30:35.161Z,17.30
2018-05-21T03:31:07.683Z,17.40
2018-05-21T03:31:40.240Z,17.40
2018-05-21T03:32:12.761Z,17.40
2018-05-21T03:32:45.300Z,17.40
2018-05-21T03:33:17.860Z,17.40
2018-05-21T03:33:50.386Z,17.40
2018-05-21T03:34:23.560Z,17.40
2018-05-21T03:34:56.863Z,17.40
2018-05-21T03:35:29.422Z,17.30
2018-05-21T03:36:03.673Z,17.40
2018-05-21T03:36:36.211Z,17.40
2018-05-21T03:37:08.773Z,17.40
2018-05-21T03:37:41.304Z,17.30
2018-05-21T03:38:14.596Z,17.30
2018-05-21T03:38:47.139Z,17.30
2018-05-21T03:39:19.688Z,17.30
2018-05-21T03:39:52.241Z,17.30
2018-05-21T03:40:24.798Z,17.30
2018-05-21T03:40:57.319Z,17.40
2018-05-21T03:41:30.665Z,17.30
2018-05-21T03:42:03.213Z,17.30
2018-05-21T03:42:35.754Z,17.30
2018-05-21T03:43:08.285Z,17.30
2018-05-21T03:43:40.832Z,17.30
2018-05-21T03:44:13.357Z,17.30
2018-05-21T03:44:45.898Z,17.30
2018-05-21T03:45:18.456Z,17.40
2018-05-21T03:45:50.969Z,17.40
2018-05-21T03:46:23.510Z,17.40
2018-05-21T03:46:56.087Z,17.40
2018-05-21T03:47:28.616Z,17.40
2018-05-21T03:48:01.343Z,17.40
2018-05-21T03:48:33.885Z,17.40
2018-05-21T03:49:06.403Z,17.40
2018-05-21T03:49:38.934Z,17.40
2018-05-21T03:50:12.244Z,17.30
2018-05-21T03:50:44.769Z,17.30
2018-05-21T03:51:17.304Z,17.30
2018-05-21T03:51:49.853Z,17.40
2018-05-21T03:52:22.396Z,17.30
2018-05-21T03:52:54.911Z,17.30
2018-05-21T03:53:27.471Z,17.30
2018-05-21T03:54:00.028Z,17.30
2018-05-21T03:54:33.187Z,17.40
2018-05-21T03:55:05.759Z,17.30
2018-05-21T03:55:38.310Z,17.40
2018-05-21T03:56:10.869Z,17.40
2018-05-21T03:56:43.416Z,17.40
2018-05-21T03:57:15.936Z,17.30
2018-05-21T03:57:48.483Z,17.40
2018-05-21T03:58:32.623Z,17.40
2018-05-21T03:59:17.259Z,17.30
2018-05-21T04:00:01.521Z,17.30
2018-05-21T04:00:45.665Z,17.30
2018-05-21T04:02:36.940Z,17.20
2018-05-21T04:03:25.976Z,17.20
2018-05-21T04:03:58.507Z,17.20
2018-05-21T04:04:31.069Z,17.20
2018-05-21T04:05:03.624Z,17.20
2018-05-21T04:05:36.941Z,17.20
2018-05-21T04:06:09.468Z,17.20
2018-05-21T04:06:42.009Z,17.20
2018-05-21T04:07:14.528Z,17.20
2018-05-21T04:07:47.063Z,17.20
2018-05-21T04:08:19.588Z,17.20
2018-05-21T04:08:52.169Z,17.20
2018-05-21T04:09:24.740Z,17.20
2018-05-21T04:09:57.312Z,17.20
2018-05-21T04:10:29.875Z,17.20
2018-05-21T04:11:02.426Z,17.20
2018-05-21T04:11:35.745Z,17.20
2018-05-21T04:12:08.291Z,17.20
2018-05-21T04:12:40.816Z,17.20
2018-05-21T04:13:13.379Z,17.30
2018-05-21T04:13:45.924Z,17.30
2018-05-21T04:14:18.514Z,17.20
2018-05-21T04:14:51.078Z,17.30
2018-05-21T04:15:23.610Z,17.20
2018-05-21T04:15:56.148Z,17.30
2018-05-21T04:16:28.700Z,17.30
2018-05-21T04:17:01.253Z,17.30
2018-05-21T04:17:33.815Z,17.30
2018-05-21T04:18:06.371Z,17.30
2018-05-21T04:18:39.049Z,17.30
2018-05-21T04:19:11.521Z,17.30
2018-05-21T04:19:44.091Z,17.30
2018-05-21T04:20:16.696Z,17.30
2018-05-21T04:20:49.233Z,17.30
2018-05-21T04:21:21.760Z,17.30
2018-05-21T04:21:54.294Z,17.30
2018-05-21T04:22:26.832Z,17.30
2018-05-21T04:22:59.362Z,17.30
2018-05-21T04:23:31.919Z,17.30
2018-05-21T04:24:04.511Z,17.30
2018-05-21T04:24:37.063Z,17.30
2018-05-21T04:25:09.625Z,17.30
2018-05-21T04:25:42.172Z,17.30
2018-05-21T04:26:14.728Z,17.30
2018-05-21T04:26:47.275Z,17.30
2018-05-21T04:27:20.601Z,17.30
2018-05-21T04:27:53.181Z,17.30
2018-05-21T04:28:25.726Z,17.30
2018-05-21T04:28:58.279Z,17.30
2018-05-21T04:29:30.824Z,17.30
2018-05-21T04:30:03.387Z,17.30
2018-05-21T04:30:35.961Z,17.30
2018-05-21T04:31:08.507Z,17.30
2018-05-21T04:31:41.076Z,17.30
2018-05-21T04:32:13.620Z,17.40
2018-05-21T04:32:46.152Z,17.40
2018-05-21T04:33:18.720Z,17.30
2018-05-21T04:33:51.291Z,17.40
2018-05-21T04:34:23.851Z,17.40
2018-05-21T04:34:56.425Z,17.40
2018-05-21T04:35:28.993Z,17.40
2018-05-21T04:36:01.736Z,17.40
2018-05-21T04:36:34.363Z,17.40
2018-05-21T04:37:06.865Z,17.40
2018-05-21T04:37:39.410Z,17.40
2018-05-21T04:38:11.955Z,17.40
2018-05-21T04:38:44.601Z,17.40
2018-05-21T04:39:17.187Z,17.40
2018-05-21T04:39:49.732Z,17.40
2018-05-21T04:40:22.309Z,17.40
2018-05-21T04:40:54.863Z,17.40
2018-05-21T04:41:27.400Z,17.40
2018-05-21T04:41:59.916Z,17.50
2018-05-21T04:42:32.490Z,17.50
2018-05-21T04:43:05.016Z,17.50
2018-05-21T04:43:37.560Z,17.50
2018-05-21T04:44:10.874Z,17.50
2018-05-21T04:44:43.432Z,17.40
2018-05-21T04:45:15.969Z,17.50
2018-05-21T04:45:48.534Z,17.40
2018-05-21T04:46:21.070Z,17.50
2018-05-21T04:46:53.686Z,17.50
2018-05-21T04:47:26.251Z,17.50
2018-05-21T04:47:58.874Z,17.50
2018-05-21T04:48:31.401Z,17.40
2018-05-21T04:49:03.962Z,17.40
2018-05-21T04:49:36.503Z,17.40
2018-05-21T04:50:09.064Z,17.40
2018-05-21T04:50:41.640Z,17.40
2018-05-21T04:51:14.475Z,17.40
2018-05-21T04:51:47.033Z,17.50
2018-05-21T04:52:19.619Z,17.40
2018-05-21T04:52:52.179Z,17.40
2018-05-21T04:53:24.788Z,17.40
2018-05-21T04:53:57.317Z,17.50
2018-05-21T04:54:29.867Z,17.40
2018-05-21T04:55:02.411Z,17.50
2018-05-21T04:55:34.952Z,17.50
2018-05-21T04:56:07.504Z,17.40
2018-05-21T04:56:40.028Z,17.50
2018-05-21T04:57:13.344Z,17.50
2018-05-21T04:57:45.872Z,17.50
2018-05-21T04:58:18.439Z,17.50
2018-05-21T04:58:51.004Z,17.50
2018-05-21T04:59:23.543Z,17.50
2018-05-21T04:59:56.084Z,17.50
2018-05-21T05:00:28.637Z,17.50
2018-05-21T05:01:01.278Z,17.60
2018-05-21T05:01:33.882Z,17.60
2018-05-21T05:02:06.414Z,17.60
2018-05-21T05:02:38.979Z,17.60
2018-05-21T05:03:11.547Z,17.60
2018-05-21T05:03:44.084Z,17.60
2018-05-21T05:04:16.629Z,17.60
2018-05-21T05:04:49.200Z,17.60
2018-05-21T05:05:21.740Z,17.60
2018-05-21T05:05:54.263Z,17.60
2018-05-21T05:06:26.824Z,17.70
2018-05-21T05:06:59.390Z,17.70
2018-05-21T05:07:31.923Z,17.70
2018-05-21T05:08:05.232Z,17.70
2018-05-21T05:08:37.804Z,17.70
2018-05-21T05:09:10.341Z,17.70
2018-05-21T05:09:42.871Z,17.70
2018-05-21T05:10:15.424Z,17.70
2018-05-21T05:10:48.736Z,17.70
2018-05-21T05:11:21.327Z,17.70
2018-05-21T05:11:53.879Z,17.70
2018-05-21T05:12:26.503Z,17.70
2018-05-21T05:12:59.087Z,17.70
2018-05-21T05:13:32.412Z,17.70
2018-05-21T05:14:04.947Z,17.70
2018-05-21T05:14:37.497Z,17.70
2018-05-21T05:15:10.051Z,17.70
2018-05-21T05:15:43.347Z,17.70
2018-05-21T05:16:15.859Z,17.70
2018-05-21T05:16:48.417Z,17.70
2018-05-21T05:17:20.994Z,17.70
2018-05-21T05:17:53.580Z,17.70
2018-05-21T05:18:26.148Z,17.70
2018-05-21T05:18:58.688Z,17.70
2018-05-21T05:19:31.236Z,17.70
2018-05-21T05:20:03.780Z,17.70
2018-05-21T05:20:36.348Z,17.70
2018-05-21T05:21:08.929Z,17.70
2018-05-21T05:21:41.467Z,17.70
2018-05-21T05:22:14.017Z,17.70
2018-05-21T05:22:46.596Z,17.70
2018-05-21T05:23:19.114Z,17.70
2018-05-21T05:23:51.645Z,17.70
2018-05-21T05:24:24.187Z,17.70
2018-05-21T05:24:56.702Z,17.70
2018-05-21T05:25:29.223Z,17.70
2018-05-21T05:26:02.555Z,17.70
2018-05-21T05:26:35.142Z,17.70
2018-05-21T05:27:07.633Z,17.70
2018-05-21T05:27:40.199Z,17.70
2018-05-21T05:28:12.767Z,17.70
2018-05-21T05:28:45.288Z,17.70
2018-05-21T05:29:17.842Z,17.80
2018-05-21T05:29:50.399Z,17.70
2018-05-21T05:30:22.919Z,17.80
2018-05-21T05:30:55.452Z,17.70
2018-05-21T05:31:27.988Z,17.80
2018-05-21T05:32:01.281Z,17.80
2018-05-21T05:32:33.808Z,17.80
2018-05-21T05:33:06.351Z,17.80
2018-05-21T05:33:38.916Z,17.80
2018-05-21T05:34:11.467Z,17.80
2018-05-21T05:34:44.025Z,17.80
2018-05-21T05:35:16.603Z,17.80
2018-05-21T05:35:49.125Z,17.80
2018-05-21T05:36:21.668Z,17.80
2018-05-21T05:36:54.987Z,17.80
2018-05-21T05:37:27.544Z,17.80
2018-05-21T05:38:00.090Z,17.80
2018-05-21T05:38:32.638Z,17.80
2018-05-21T05:39:06.050Z,17.80
2018-05-21T05:39:38.574Z,17.80
2018-05-21T05:40:11.912Z,17.90
2018-05-21T05:40:44.432Z,17.80
2018-05-21T05:41:16.947Z,17.90
2018-05-21T05:41:49.479Z,17.90
2018-05-21T05:42:22.023Z,17.90
2018-05-21T05:42:54.951Z,17.90
2018-05-21T05:43:27.468Z,17.90
2018-05-21T05:43:59.979Z,17.90
2018-05-21T05:44:32.586Z,17.90
2018-05-21T05:45:05.132Z,17.90
2018-05-21T05:45:37.687Z,17.90
2018-05-21T05:46:10.217Z,17.90
2018-05-21T05:46:42.770Z,18.00
2018-05-21T05:47:15.295Z,18.00
2018-05-21T05:47:47.827Z,18.00
2018-05-21T05:48:20.384Z,18.00
2018-05-21T05:48:52.931Z,18.00
2018-05-21T05:49:25.491Z,18.00
2018-05-21T05:49:58.068Z,18.00
2018-05-21T05:50:30.621Z,18.00
2018-05-21T05:51:03.177Z,18.00
2018-05-21T05:51:35.704Z,18.00
2018-05-21T05:52:09.670Z,18.00
2018-05-21T05:52:42.220Z,18.00
2018-05-21T05:53:14.764Z,18.10
2018-05-21T05:53:47.285Z,18.00
2018-05-21T05:54:19.796Z,18.00
2018-05-21T05:54:52.360Z,18.00
2018-05-21T05:55:24.912Z,18.00
2018-05-21T05:55:57.446Z,18.10
2018-05-21T05:56:30.765Z,18.10
2018-05-21T05:57:03.279Z,18.10
2018-05-21T05:57:35.794Z,18.10
2018-05-21T05:58:08.392Z,18.10
2018-05-21T05:58:40.867Z,18.10
2018-05-21T05:59:14.143Z,18.10
2018-05-21T05:59:47.432Z,18.10
2018-05-21T06:00:19.977Z,18.10
2018-05-21T06:00:52.519Z,18.10
2018-05-21T06:01:25.075Z,18.10
2018-05-21T06:01:57.605Z,18.00
2018-05-21T06:02:30.157Z,18.10
2018-05-21T06:03:02.700Z,18.10
2018-05-21T06:03:35.248Z,18.10
2018-05-21T06:04:07.783Z,18.10
2018-05-21T06:04:40.321Z,18.10
2018-05-21T06:05:12.852Z,18.10
2018-05-21T06:05:45.364Z,18.10
2018-05-21T06:06:17.889Z,18.10
2018-05-21T06:06:50.438Z,18.10
2018-05-21T06:07:22.996Z,18.10
2018-05-21T06:07:55.543Z,18.10
2018-05-21T06:08:28.079Z,18.10
2018-05-21T06:09:00.600Z,18.20
2018-05-21T06:09:33.879Z,18.20
2018-05-21T06:10:06.453Z,18.20
2018-05-21T06:10:38.972Z,18.20
2018-05-21T06:11:11.511Z,18.20
2018-05-21T06:11:44.028Z,18.20
2018-05-21T06:12:16.575Z,18.20
2018-05-21T06:12:49.134Z,18.20
2018-05-21T06:13:21.702Z,18.20
2018-05-21T06:13:54.229Z,18.20
2018-05-21T06:14:26.746Z,18.20
2018-05-21T06:14:59.268Z,18.30
2018-05-21T06:15:31.820Z,18.30
2018-05-21T06:16:04.431Z,18.20
2018-05-21T06:16:36.982Z,18.30
2018-05-21T06:17:09.523Z,18.30
2018-05-21T06:17:42.074Z,18.30
2018-05-21T06:18:14.622Z,18.30
2018-05-21T06:18:47.153Z,18.30
2018-05-21T06:19:19.691Z,18.30
2018-05-21T06:19:52.216Z,18.30
2018-05-21T06:20:24.744Z,18.30
2018-05-21T06:20:57.281Z,18.30
2018-05-21T06:21:29.873Z,18.30
2018-05-21T06:22:02.596Z,18.30
2018-05-21T06:22:35.119Z,18.30
2018-05-21T06:23:07.663Z,18.30
2018-05-21T06:23:40.180Z,18.30
2018-05-21T06:24:12.732Z,18.30
2018-05-21T06:24:45.259Z,18.30
2018-05-21T06:25:18.553Z,18.30
2018-05-21T06:25:51.141Z,18.30
2018-05-21T06:26:23.647Z,18.30
2018-05-21T06:26:56.222Z,18.30
2018-05-21T06:27:28.788Z,18.30
2018-05-21T06:28:01.323Z,18.30
2018-05-21T06:28:33.900Z,18.30
2018-05-21T06:29:06.430Z,18.30
2018-05-21T06:29:38.963Z,18.30
2018-05-21T06:30:11.504Z,18.30
2018-05-21T06:30:44.023Z,18.30
2018-05-21T06:31:16.572Z,18.30
2018-05-21T06:31:49.115Z,18.30
2018-05-21T06:32:21.639Z,18.30
2018-05-21T06:32:54.188Z,18.30
2018-05-21T06:33:26.740Z,18.30
2018-05-21T06:33:59.303Z,18.30
2018-05-21T06:34:31.797Z,18.30
2018-05-21T06:35:04.325Z,18.30
2018-05-21T06:35:36.844Z,18.30
2018-05-21T06:36:09.357Z,18.30
2018-05-21T06:36:41.892Z,18.40
2018-05-21T06:37:14.437Z,18.40
2018-05-21T06:37:46.954Z,18.40
2018-05-21T06:38:19.508Z,18.40
2018-05-21T06:38:52.093Z,18.40
2018-05-21T06:39:24.639Z,18.40
2018-05-21T06:39:57.201Z,18.40
2018-05-21T06:40:29.720Z,18.40
2018-05-21T06:41:03.035Z,18.40
2018-05-21T06:41:35.565Z,18.40
2018-05-21T06:42:08.114Z,18.40
2018-05-21T06:42:40.663Z,18.40
2018-05-21T06:43:13.182Z,18.40
2018-05-21T06:43:45.704Z,18.40
2018-05-21T06:44:19.052Z,18.40
2018-05-21T06:44:51.601Z,18.40
2018-05-21T06:45:24.144Z,18.50
2018-05-21T06:45:56.659Z,18.50
2018-05-21T06:46:29.187Z,18.50
2018-05-21T06:47:01.720Z,18.50
2018-05-21T06:47:34.270Z,18.50
2018-05-21T06:48:06.827Z,18.50
2018-05-21T06:48:39.344Z,18.60
2018-05-21T06:49:11.893Z,18.60
2018-05-21T06:49:44.448Z,18.60
2018-05-21T06:50:16.967Z,18.60
2018-05-21T06:50:49.486Z,18.60
2018-05-21T06:51:22.014Z,18.60
2018-05-21T06:51:55.322Z,18.60
2018-05-21T06:52:27.846Z,18.60
2018-05-21T06:53:00.387Z,18.60
2018-05-21T06:53:32.930Z,18.60
2018-05-21T06:54:05.476Z,18.60
2018-05-21T06:54:38.060Z,18.60
2018-05-21T06:55:10.575Z,18.60
2018-05-21T06:55:43.900Z,18.70
2018-05-21T06:56:16.435Z,18.60
2018-05-21T06:56:48.955Z,18.60
2018-05-21T06:57:21.474Z,18.70
2018-05-21T06:57:54.045Z,18.70
2018-05-21T06:58:26.590Z,18.70
2018-05-21T06:58:59.143Z,18.70
2018-05-21T06:59:31.693Z,18.70
2018-05-21T07:00:05.012Z,18.70
2018-05-21T07:00:37.524Z,18.70
2018-05-21T07:01:10.805Z,18.70
2018-05-21T07:01:43.373Z,18.70
2018-05-21T07:02:15.944Z,18.70
2018-05-21T07:02:48.491Z,18.70